createdAt,value
2022-10-22T00:01:51.988Z,4.57
2022-10-22T00:04:21.861Z,5.60
2022-10-22T00:06:54.337Z,6.30
2022-10-22T00:09:21.079Z,6.60
2022-10-22T00:11:47.483Z,5.80
2022-10-22T00:14:13.944Z,8.02
2022-10-22T00:16:40.286Z,6.43
2022-10-22T00:19:06.832Z,7.20
2022-10-22T00:21:33.140Z,7.90
2022-10-22T00:23:59.424Z,8.75
2022-10-22T00:26:25.817Z,6.45
2022-10-22T00:28:53.285Z,7.85
2022-10-22T00:31:20.144Z,8.43
2022-10-22T00:33:47.949Z,7.00
2022-10-22T00:36:15.653Z,5.55
2022-10-22T00:38:42.278Z,5.60
2022-10-22T00:41:08.728Z,6.20
2022-10-22T00:43:53.688Z,4.60
2022-10-22T00:46:19.967Z,6.93
2022-10-22T00:48:46.537Z,5.10
2022-10-22T00:51:13.699Z,5.47
2022-10-22T00:53:45.491Z,5.63
2022-10-22T00:56:12.289Z,6.05
2022-10-22T00:58:46.201Z,5.43
2022-10-22T01:01:18.244Z,5.82
2022-10-22T01:03:44.704Z,7.03
2022-10-22T01:06:14.732Z,6.30
2022-10-22T01:08:55.916Z,7.15
2022-10-22T01:11:48.814Z,5.15
2022-10-22T01:14:18.067Z,8.05
2022-10-22T01:17:04.519Z,5.22
2022-10-22T01:19:54.023Z,6.63
2022-10-22T01:22:31.374Z,9.77
2022-10-22T01:25:35.722Z,9.70
2022-10-22T01:28:28.031Z,7.00
2022-10-22T01:30:58.292Z,6.57
2022-10-22T01:33:26.493Z,6.18
2022-10-22T01:35:53.662Z,6.43
2022-10-22T01:38:23.178Z,6.22
2022-10-22T01:40:51.176Z,7.45
2022-10-22T01:43:17.544Z,5.85
2022-10-22T01:45:48.352Z,8.57
2022-10-22T01:48:28.487Z,9.50
2022-10-22T01:51:22.144Z,7.35
2022-10-22T01:54:00.600Z,6.50
2022-10-22T01:56:48.857Z,8.68
2022-10-22T01:59:34.450Z,6.95
2022-10-22T02:02:22.556Z,4.20
2022-10-22T02:04:57.136Z,8.10
2022-10-22T02:07:28.399Z,9.83
2022-10-22T02:09:56.664Z,10.15
2022-10-22T02:12:25.152Z,6.45
2022-10-22T02:14:52.953Z,6.15
2022-10-22T02:17:21.931Z,7.93
2022-10-22T02:19:54.241Z,8.82
2022-10-22T02:22:20.668Z,7.87
2022-10-22T02:24:49.090Z,5.88
2022-10-22T02:27:25.843Z,8.25
2022-10-22T02:30:09.924Z,8.73
2022-10-22T02:32:44.963Z,6.85
2022-10-22T02:35:14.952Z,7.10
2022-10-22T02:37:42.274Z,8.95
2022-10-22T02:40:09.782Z,8.63
2022-10-22T02:42:39.265Z,6.70
2022-10-22T02:45:07.099Z,5.25
2022-10-22T02:47:33.425Z,6.72
2022-10-22T02:49:59.784Z,6.70
2022-10-22T02:52:26.081Z,5.25
2022-10-22T02:54:52.369Z,4.28
2022-10-22T02:57:18.689Z,4.85
2022-10-22T02:59:44.963Z,3.58
2022-10-22T03:02:11.251Z,3.00
2022-10-22T03:04:37.564Z,5.55
2022-10-22T03:07:03.843Z,5.88
2022-10-22T03:09:30.377Z,5.93
2022-10-22T03:11:56.700Z,2.63
2022-10-22T03:14:22.988Z,3.70
2022-10-22T03:16:49.344Z,3.80
2022-10-22T03:19:15.656Z,4.07
2022-10-22T03:21:45.696Z,3.45
2022-10-22T03:24:16.308Z,2.10
2022-10-22T03:26:43.544Z,3.33
2022-10-22T03:29:12.785Z,2.58
2022-10-22T03:31:39.145Z,3.92
2022-10-22T03:34:05.539Z,2.75
2022-10-22T03:36:33.205Z,2.55
2022-10-22T03:39:01.242Z,2.30
2022-10-22T03:41:28.431Z,1.65
2022-10-22T03:43:55.322Z,2.38
2022-10-22T03:46:21.606Z,5.72
2022-10-22T03:48:47.898Z,3.17
2022-10-22T03:51:14.175Z,1.90
2022-10-22T03:53:40.476Z,2.00
2022-10-22T03:56:10.735Z,1.42
2022-10-22T03:58:38.616Z,2.58
2022-10-22T04:01:11.045Z,2.53
2022-10-22T04:03:38.140Z,2.72
2022-10-22T04:06:12.938Z,2.88
2022-10-22T04:08:40.835Z,2.75
2022-10-22T04:11:07.737Z,2.08
2022-10-22T04:13:34.466Z,2.45
2022-10-22T04:16:09.166Z,2.47
2022-10-22T04:18:35.775Z,1.85
2022-10-22T04:21:02.543Z,2.80
2022-10-22T04:23:28.852Z,1.70
2022-10-22T04:26:03.619Z,2.75
2022-10-22T04:28:30.107Z,2.53
2022-10-22T04:30:56.713Z,4.53
2022-10-22T04:33:23.294Z,3.83
2022-10-22T04:35:49.658Z,1.55
2022-10-22T04:38:16.183Z,2.67
2022-10-22T04:40:42.775Z,4.03
2022-10-22T04:43:09.174Z,2.42
2022-10-22T04:45:36.267Z,3.88
2022-10-22T04:48:02.888Z,1.92
2022-10-22T04:50:29.792Z,3.67
2022-10-22T04:52:56.115Z,2.38
2022-10-22T04:55:22.435Z,3.55
2022-10-22T04:57:48.880Z,2.22
2022-10-22T05:00:16.583Z,2.05
2022-10-22T05:02:44.637Z,2.17
2022-10-22T05:05:11.842Z,3.50
2022-10-22T05:07:38.339Z,2.40
2022-10-22T05:10:05.178Z,3.50
2022-10-22T05:12:31.507Z,2.00
2022-10-22T05:14:57.790Z,2.92
2022-10-22T05:17:24.149Z,2.60
2022-10-22T05:19:50.455Z,5.28
2022-10-22T05:22:16.751Z,4.47
2022-10-22T05:24:43.136Z,2.40
2022-10-22T05:27:09.549Z,4.38
2022-10-22T05:29:35.964Z,2.42
2022-10-22T05:32:02.278Z,1.98
2022-10-22T05:34:28.745Z,3.10
2022-10-22T05:36:55.045Z,4.03
2022-10-22T05:39:21.329Z,3.45
2022-10-22T05:41:47.608Z,3.92
2022-10-22T05:44:13.959Z,3.13
2022-10-22T05:46:41.031Z,2.95
2022-10-22T05:49:07.532Z,4.28
2022-10-22T05:51:36.483Z,4.53
2022-10-22T05:54:05.904Z,3.50
2022-10-22T05:56:32.290Z,4.00
2022-10-22T05:58:59.415Z,2.38
2022-10-22T06:01:28.512Z,2.65
2022-10-22T06:03:57.027Z,2.88
2022-10-22T06:06:47.252Z,1.92
2022-10-22T06:09:38.768Z,2.22
2022-10-22T06:12:08.991Z,3.35
2022-10-22T06:14:35.288Z,2.13
2022-10-22T06:17:01.627Z,2.10
2022-10-22T06:19:29.687Z,1.90
2022-10-22T06:21:55.944Z,3.35
2022-10-22T06:24:22.348Z,1.60
2022-10-22T06:26:52.417Z,3.47
2022-10-22T06:29:18.825Z,6.03
2022-10-22T06:31:45.250Z,1.85
2022-10-22T06:34:13.651Z,3.05
2022-10-22T06:36:43.201Z,2.28
2022-10-22T06:39:12.485Z,2.30
2022-10-22T06:41:39.088Z,2.72
2022-10-22T06:44:05.403Z,1.50
2022-10-22T06:46:32.106Z,2.22
2022-10-22T06:49:00.983Z,2.20
2022-10-22T06:51:27.805Z,3.20
2022-10-22T06:53:55.535Z,1.88
2022-10-22T06:56:24.328Z,2.08
2022-10-22T06:58:52.773Z,2.70
2022-10-22T07:01:22.736Z,2.67
2022-10-22T07:06:41.809Z,3.10
2022-10-22T07:09:08.239Z,2.05
2022-10-22T07:11:41.270Z,3.35
2022-10-22T07:14:07.968Z,1.40
2022-10-22T07:16:34.604Z,2.25
2022-10-22T07:19:03.118Z,2.88
2022-10-22T07:21:30.423Z,1.58
2022-10-22T07:23:56.984Z,4.00
2022-10-22T07:26:28.096Z,1.40
2022-10-22T07:28:54.521Z,1.17
2022-10-22T07:31:20.801Z,1.30
2022-10-22T07:33:47.136Z,1.20
2022-10-22T07:36:17.648Z,2.63
2022-10-22T07:38:45.684Z,1.83
2022-10-22T07:41:13.093Z,3.00
2022-10-22T07:43:39.514Z,1.95
2022-10-22T07:46:06.705Z,3.83
2022-10-22T07:48:32.959Z,2.58
2022-10-22T07:50:59.272Z,1.90
2022-10-22T07:53:25.581Z,1.25
2022-10-22T07:55:52.140Z,1.65
2022-10-22T07:58:19.583Z,1.13
2022-10-22T08:00:46.162Z,2.45
2022-10-22T08:03:13.316Z,1.25
2022-10-22T08:05:40.555Z,1.10
2022-10-22T08:08:06.932Z,4.30
2022-10-22T08:10:33.551Z,0.82
2022-10-22T08:12:59.843Z,1.15
2022-10-22T08:15:29.245Z,3.85
2022-10-22T08:17:55.567Z,2.58
2022-10-22T08:20:21.956Z,4.28
2022-10-22T08:22:48.408Z,3.22
2022-10-22T08:25:15.501Z,5.50
2022-10-22T08:27:42.105Z,3.33
2022-10-22T08:30:09.293Z,1.27
2022-10-22T08:32:35.601Z,1.63
2022-10-22T08:35:01.940Z,4.72
2022-10-22T08:37:28.313Z,2.22
2022-10-22T08:39:54.687Z,1.17
2022-10-22T08:42:36.227Z,2.42
2022-10-22T08:45:29.996Z,3.83
2022-10-22T08:48:19.667Z,4.07
2022-10-22T08:50:48.635Z,2.92
2022-10-22T08:54:02.577Z,1.55
2022-10-22T08:56:30.688Z,2.40
2022-10-22T08:59:06.662Z,2.30
2022-10-22T09:01:39.910Z,1.00
2022-10-22T09:04:52.770Z,1.40
2022-10-22T09:07:19.124Z,2.38
2022-10-22T09:09:49.164Z,3.45
2022-10-22T09:12:20.201Z,2.15
2022-10-22T09:14:46.939Z,1.67
2022-10-22T09:17:39.507Z,1.38
2022-10-22T09:20:23.864Z,1.65
2022-10-22T09:23:19.995Z,1.02
2022-10-22T09:25:46.869Z,0.73
2022-10-22T09:28:13.167Z,1.05
2022-10-22T09:30:40.108Z,3.03
2022-10-22T09:33:06.344Z,2.22
2022-10-22T09:35:43.483Z,3.63
2022-10-22T09:38:09.836Z,1.17
2022-10-22T09:40:56.690Z,1.45
2022-10-22T09:43:23.354Z,0.60
2022-10-22T09:45:58.066Z,2.42
2022-10-22T09:48:34.889Z,1.98
2022-10-22T09:51:17.939Z,0.98
2022-10-22T09:54:18.594Z,1.00
2022-10-22T09:56:57.964Z,1.88
2022-10-22T09:59:28.840Z,1.17
2022-10-22T10:02:13.414Z,4.38
2022-10-22T10:04:54.783Z,1.33
2022-10-22T10:07:27.149Z,1.95
2022-10-22T10:09:54.536Z,2.05
2022-10-22T10:12:29.817Z,1.83
2022-10-22T10:17:38.728Z,3.10
2022-10-22T10:22:59.479Z,2.15
2022-10-22T10:25:40.953Z,2.13
2022-10-22T10:28:31.311Z,2.63
2022-10-22T10:31:17.507Z,1.98
2022-10-22T10:33:59.792Z,4.05
2022-10-22T10:36:38.239Z,1.20
2022-10-22T10:39:20.036Z,2.67
2022-10-22T10:42:20.097Z,3.70
2022-10-22T10:44:59.919Z,3.45
2022-10-22T10:47:41.112Z,1.08
2022-10-22T10:50:26.433Z,2.20
2022-10-22T10:53:25.324Z,0.98
2022-10-22T10:56:02.287Z,1.92
2022-10-22T10:58:37.712Z,4.90
2022-10-22T11:01:19.808Z,1.20
2022-10-22T11:04:06.452Z,1.33
2022-10-22T11:06:37.360Z,6.22
2022-10-22T11:09:14.455Z,2.20
2022-10-22T11:11:46.763Z,1.42
2022-10-22T11:14:27.913Z,1.77
2022-10-22T11:17:03.247Z,2.67
2022-10-22T11:19:50.664Z,6.82
2022-10-22T11:22:31.977Z,1.85
2022-10-22T11:25:13.959Z,3.60
2022-10-22T11:28:01.353Z,4.63
2022-10-22T11:30:37.779Z,2.38
2022-10-22T11:33:10.668Z,2.92
2022-10-22T11:35:40.923Z,1.50
2022-10-22T11:38:11.897Z,3.38
2022-10-22T11:40:42.771Z,4.35
2022-10-22T11:43:51.299Z,2.83
2022-10-22T11:46:17.548Z,8.90
2022-10-22T11:48:43.919Z,2.08
2022-10-22T11:51:31.823Z,4.30
2022-10-22T11:54:02.310Z,12.32
2022-10-22T11:56:38.839Z,5.50
2022-10-22T11:59:28.511Z,6.95
2022-10-22T12:01:56.245Z,4.55
2022-10-22T12:04:23.485Z,2.70
2022-10-22T12:06:58.842Z,3.75
2022-10-22T12:09:30.001Z,3.70
2022-10-22T12:12:04.555Z,4.05
2022-10-22T12:14:50.572Z,1.90
2022-10-22T12:17:18.079Z,3.40
2022-10-22T12:19:51.237Z,3.10
2022-10-22T12:22:27.770Z,2.03
2022-10-22T12:25:00.688Z,2.38
2022-10-22T12:27:33.958Z,1.25
2022-10-22T12:30:01.871Z,4.22
2022-10-22T12:32:37.215Z,4.15
2022-10-22T12:35:06.845Z,2.25
2022-10-22T12:37:36.167Z,5.03
2022-10-22T12:40:15.755Z,1.40
2022-10-22T12:42:48.185Z,5.78
2022-10-22T12:45:14.585Z,3.63
2022-10-22T12:47:45.929Z,3.60
2022-10-22T12:50:20.940Z,2.90
2022-10-22T12:55:17.723Z,2.75
2022-10-22T12:57:47.161Z,2.97
2022-10-22T13:00:32.141Z,1.52
2022-10-22T13:03:02.640Z,4.07
2022-10-22T13:05:38.891Z,2.58
2022-10-22T13:08:17.896Z,2.63
2022-10-22T13:10:51.326Z,2.45
2022-10-22T13:13:43.099Z,1.77
2022-10-22T13:16:24.429Z,2.10
2022-10-22T13:18:52.772Z,2.03
2022-10-22T13:21:48.483Z,7.03
2022-10-22T13:24:24.078Z,3.50
2022-10-22T13:26:53.672Z,5.30
2022-10-22T13:29:22.513Z,4.15
2022-10-22T13:31:53.705Z,4.93
2022-10-22T13:34:23.745Z,3.30
2022-10-22T13:36:50.581Z,4.47
2022-10-22T13:39:19.278Z,3.10
2022-10-22T13:41:45.920Z,4.75
2022-10-22T13:44:12.260Z,2.20
2022-10-22T13:46:42.607Z,5.65
2022-10-22T13:49:17.990Z,1.98
2022-10-22T13:51:44.852Z,2.90
2022-10-22T13:54:19.335Z,3.55
2022-10-22T13:56:45.737Z,2.47
2022-10-22T13:59:12.787Z,5.32
2022-10-22T14:01:39.207Z,6.03
2022-10-22T14:04:08.345Z,3.42
2022-10-22T14:09:13.304Z,2.85
2022-10-22T14:11:39.646Z,3.65
2022-10-22T14:14:08.744Z,3.10
2022-10-22T14:16:37.456Z,3.40
2022-10-22T14:19:06.837Z,2.72
2022-10-22T14:21:37.298Z,7.40
2022-10-22T14:24:06.091Z,3.15
2022-10-22T14:26:35.008Z,4.20
2022-10-22T14:29:09.141Z,5.32
2022-10-22T14:34:03.490Z,5.55
2022-10-22T14:36:29.795Z,3.88
2022-10-22T14:38:56.090Z,4.30
2022-10-22T14:41:24.988Z,3.38
2022-10-22T14:43:52.256Z,2.38
2022-10-22T14:46:19.332Z,2.97
2022-10-22T14:48:45.685Z,2.47
2022-10-22T14:51:17.316Z,3.80
2022-10-22T14:53:43.788Z,6.03
2022-10-22T14:56:16.362Z,4.15
2022-10-22T14:58:42.780Z,3.83
2022-10-22T15:01:09.332Z,4.15
2022-10-22T15:03:36.379Z,4.32
2022-10-22T15:06:03.535Z,4.10
2022-10-22T15:08:30.159Z,2.20
2022-10-22T15:11:12.407Z,2.53
2022-10-22T15:13:41.148Z,5.43
2022-10-22T15:16:09.455Z,5.30
2022-10-22T15:18:36.182Z,4.30
2022-10-22T15:21:06.004Z,2.95
2022-10-22T15:23:32.438Z,3.78
2022-10-22T15:25:58.907Z,4.65
2022-10-22T15:28:25.913Z,4.35
2022-10-22T15:30:54.336Z,3.60
2022-10-22T15:33:20.701Z,3.90
2022-10-22T15:35:47.071Z,4.32
2022-10-22T15:38:13.362Z,2.00
2022-10-22T15:40:39.664Z,2.80
2022-10-22T15:43:05.956Z,1.98
2022-10-22T15:45:32.248Z,3.67
2022-10-22T15:47:58.634Z,5.25
2022-10-22T15:50:24.936Z,4.78
2022-10-22T15:52:51.349Z,2.22
2022-10-22T15:55:18.719Z,3.03
2022-10-22T15:57:45.265Z,3.53
2022-10-22T16:00:12.804Z,3.25
2022-10-22T16:02:39.535Z,2.42
2022-10-22T16:05:06.346Z,5.20
2022-10-22T16:07:32.648Z,3.92
2022-10-22T16:10:00.284Z,4.28
2022-10-22T16:12:26.581Z,3.35
2022-10-22T16:14:52.869Z,3.97
2022-10-22T16:17:19.242Z,5.07
2022-10-22T16:19:45.548Z,3.72
2022-10-22T16:22:13.675Z,4.28
2022-10-22T16:24:43.017Z,2.83
2022-10-22T16:27:10.131Z,3.13
2022-10-22T16:29:40.009Z,2.85
2022-10-22T16:32:06.734Z,4.22
2022-10-22T16:34:33.205Z,3.50
2022-10-22T16:36:59.586Z,3.20
2022-10-22T16:39:25.960Z,4.80
2022-10-22T16:41:52.269Z,7.30
2022-10-22T16:44:18.624Z,4.97
2022-10-22T16:46:44.925Z,6.32
2022-10-22T16:49:11.524Z,3.72
2022-10-22T16:51:37.823Z,4.35
2022-10-22T16:54:06.850Z,6.88
2022-10-22T16:56:36.451Z,5.85
2022-10-22T16:59:03.295Z,3.88
2022-10-22T17:01:29.831Z,3.30
2022-10-22T17:03:59.299Z,2.67
2022-10-22T17:06:26.170Z,3.58
2022-10-22T17:08:52.673Z,3.88
2022-10-22T17:11:22.474Z,3.72
2022-10-22T17:13:52.437Z,5.10
2022-10-22T17:16:21.185Z,4.15
2022-10-22T17:18:48.086Z,4.38
2022-10-22T17:21:15.662Z,6.40
2022-10-22T17:23:42.658Z,2.97
2022-10-22T17:26:15.491Z,8.20
2022-10-22T17:28:41.854Z,4.55
2022-10-22T17:31:10.659Z,4.07
2022-10-22T17:33:37.571Z,5.07
2022-10-22T17:36:09.000Z,7.05
2022-10-22T17:38:35.514Z,6.55
2022-10-22T17:41:04.428Z,6.93
2022-10-22T17:43:34.817Z,7.30
2022-10-22T17:46:08.897Z,7.10
2022-10-22T17:48:35.249Z,4.07
2022-10-22T17:51:08.605Z,4.85
2022-10-22T17:53:35.664Z,3.75
2022-10-22T17:56:03.786Z,6.00
2022-10-22T17:58:30.756Z,3.03
2022-10-22T18:00:58.190Z,6.53
2022-10-22T18:03:25.127Z,7.28
2022-10-22T18:05:51.700Z,6.72
2022-10-22T18:08:18.092Z,5.10
2022-10-22T18:10:44.424Z,3.72
2022-10-22T18:13:10.968Z,5.35
2022-10-22T18:15:37.392Z,5.75
2022-10-22T18:18:04.270Z,5.25
2022-10-22T18:20:30.843Z,6.45
2022-10-22T18:22:57.498Z,8.48
2022-10-22T18:25:23.918Z,4.95
2022-10-22T18:27:50.333Z,5.82
2022-10-22T18:30:16.661Z,5.00
2022-10-22T18:32:42.986Z,3.88
2022-10-22T18:35:09.311Z,3.75
2022-10-22T18:37:36.351Z,4.78
2022-10-22T18:40:03.449Z,5.57
2022-10-22T18:42:32.815Z,4.53
2022-10-22T18:45:00.890Z,6.00
2022-10-22T18:47:27.196Z,4.68
2022-10-22T18:49:53.473Z,5.07
2022-10-22T18:52:19.792Z,4.72
2022-10-22T18:54:46.149Z,7.68
2022-10-22T18:57:12.471Z,6.05
2022-10-22T18:59:38.785Z,4.40
2022-10-22T19:02:05.177Z,5.05
2022-10-22T19:04:36.549Z,3.78
2022-10-22T19:07:04.411Z,8.32
2022-10-22T19:09:31.213Z,2.97
2022-10-22T19:11:57.637Z,6.50
2022-10-22T19:14:23.998Z,6.13
2022-10-22T19:16:50.416Z,6.30
2022-10-22T19:19:19.604Z,4.45
2022-10-22T19:21:46.828Z,3.50
2022-10-22T19:24:15.215Z,6.38
2022-10-22T19:26:42.240Z,6.47
2022-10-22T19:29:10.780Z,5.95
2022-10-22T19:31:37.486Z,3.03
2022-10-22T19:34:03.801Z,7.63
2022-10-22T19:36:31.152Z,4.53
2022-10-22T19:38:58.915Z,4.43
2022-10-22T19:41:27.970Z,3.63
2022-10-22T19:43:55.478Z,4.65
2022-10-22T19:46:22.566Z,4.93
2022-10-22T19:48:51.077Z,6.38
2022-10-22T19:51:20.519Z,9.38
2022-10-22T19:53:48.045Z,6.20
2022-10-22T19:56:20.412Z,5.20
2022-10-22T19:58:46.994Z,5.40
2022-10-22T20:01:15.875Z,11.15
2022-10-22T20:03:42.456Z,5.28
2022-10-22T20:06:10.932Z,4.45
2022-10-22T20:08:38.451Z,9.60
2022-10-22T20:11:07.017Z,5.88
2022-10-22T20:13:34.616Z,7.75
2022-10-22T20:16:01.084Z,5.75
2022-10-22T20:18:27.429Z,6.03
2022-10-22T20:20:53.718Z,5.43
2022-10-22T20:23:19.984Z,4.60
2022-10-22T20:25:47.144Z,4.35
2022-10-22T20:28:14.419Z,4.63
2022-10-22T20:30:45.070Z,5.45
2022-10-22T20:33:12.811Z,7.30
2022-10-22T20:35:39.549Z,7.88
2022-10-22T20:38:07.387Z,6.43
2022-10-22T20:40:33.839Z,10.27
2022-10-22T20:43:00.867Z,6.55
2022-10-22T20:45:27.878Z,6.82
2022-10-22T20:48:01.957Z,7.05
2022-10-22T20:50:31.886Z,4.85
2022-10-22T20:52:59.087Z,11.00
2022-10-22T20:55:25.908Z,7.18
2022-10-22T20:57:52.232Z,6.10
2022-10-22T21:00:18.564Z,6.20
2022-10-22T21:02:44.880Z,8.18
2022-10-22T21:05:11.260Z,7.05
2022-10-22T21:07:37.537Z,5.60
2022-10-22T21:10:04.281Z,7.80
2022-10-22T21:12:30.553Z,6.63
2022-10-22T21:14:56.853Z,7.32
2022-10-22T21:17:23.197Z,5.70
2022-10-22T21:19:49.479Z,8.65
2022-10-22T21:22:15.758Z,7.53
2022-10-22T21:24:42.127Z,3.53
2022-10-22T21:27:08.548Z,7.72
2022-10-22T21:29:34.847Z,5.65
2022-10-22T21:32:01.150Z,6.05
2022-10-22T21:34:27.545Z,5.97
2022-10-22T21:36:53.895Z,6.35
2022-10-22T21:39:20.204Z,5.82
2022-10-22T21:41:46.487Z,4.15
2022-10-22T21:44:12.766Z,4.78
2022-10-22T21:46:39.047Z,5.68
2022-10-22T21:49:05.379Z,6.93
2022-10-22T21:51:33.872Z,6.72
2022-10-22T21:54:00.590Z,5.82
2022-10-22T21:56:30.223Z,7.47
2022-10-22T21:58:56.531Z,7.63
2022-10-22T22:01:22.993Z,6.65
2022-10-22T22:03:50.125Z,6.32
2022-10-22T22:06:21.300Z,10.45
2022-10-22T22:08:49.049Z,5.30
2022-10-22T22:11:18.488Z,4.35
2022-10-22T22:13:45.302Z,4.68
2022-10-22T22:16:14.756Z,8.70
2022-10-22T22:18:42.172Z,5.25
2022-10-22T22:21:14.320Z,4.93
2022-10-22T22:23:43.261Z,6.82
2022-10-22T22:26:10.626Z,7.63
2022-10-22T22:28:37.388Z,5.75
2022-10-22T22:31:13.212Z,7.95
2022-10-22T22:33:39.581Z,5.32
2022-10-22T22:36:06.217Z,6.28
2022-10-22T22:38:32.529Z,5.72
2022-10-22T22:41:00.344Z,6.22
2022-10-22T22:43:26.747Z,6.60
2022-10-22T22:46:06.638Z,7.28
2022-10-22T22:48:33.169Z,5.90
2022-10-22T22:51:00.011Z,7.47
2022-10-22T22:53:28.114Z,7.05
2022-10-22T22:56:06.166Z,4.90
2022-10-22T22:58:32.873Z,8.68
2022-10-22T23:01:21.327Z,7.20
2022-10-22T23:03:52.524Z,5.68
2022-10-22T23:06:18.852Z,7.80
2022-10-22T23:08:49.401Z,7.20
2022-10-22T23:11:16.338Z,8.73
2022-10-22T23:13:43.068Z,8.32
2022-10-22T23:16:18.223Z,7.28
2022-10-22T23:18:45.704Z,5.78
2022-10-22T23:21:15.028Z,7.57
2022-10-22T23:23:45.991Z,6.57
2022-10-22T23:26:13.980Z,5.85
2022-10-22T23:28:40.556Z,4.82
2022-10-22T23:31:07.655Z,4.47
2022-10-22T23:33:34.876Z,5.45
2022-10-22T23:36:02.137Z,5.10
2022-10-22T23:38:28.561Z,6.00
2022-10-22T23:40:56.448Z,6.03
2022-10-22T23:43:26.341Z,6.57
2022-10-22T23:45:52.992Z,4.80
2022-10-22T23:48:20.078Z,7.25
2022-10-22T23:50:46.954Z,8.45
2022-10-22T23:53:13.866Z,9.05
2022-10-22T23:55:41.990Z,5.63
2022-10-22T23:58:09.172Z,6.95
